createdAt,value
2019-02-16T00:01:55.661Z,1.20
2019-02-16T00:04:21.751Z,1.20
2019-02-16T00:06:47.858Z,1.20
2019-02-16T00:09:13.955Z,1.10
2019-02-16T00:11:40.083Z,1.00
2019-02-16T00:14:06.183Z,0.90
2019-02-16T00:16:32.266Z,1.00
2019-02-16T00:18:58.342Z,0.90
2019-02-16T00:21:24.478Z,0.90
2019-02-16T00:23:50.594Z,1.00
2019-02-16T00:26:16.977Z,1.00
2019-02-16T00:28:43.147Z,0.90
2019-02-16T00:31:09.256Z,0.80
2019-02-16T00:33:35.338Z,0.70
2019-02-16T00:36:01.473Z,0.90
2019-02-16T00:38:27.536Z,0.90
2019-02-16T00:40:53.678Z,0.80
2019-02-16T00:43:19.890Z,0.80
2019-02-16T00:45:46.004Z,0.70
2019-02-16T00:48:12.199Z,0.70
2019-02-16T00:50:38.277Z,0.70
2019-02-16T00:53:04.487Z,0.70
2019-02-16T00:55:30.560Z,0.60
2019-02-16T00:57:56.716Z,0.50
2019-02-16T01:00:22.809Z,0.60
2019-02-16T01:02:48.916Z,0.50
2019-02-16T01:05:15.075Z,0.50
2019-02-16T01:07:41.282Z,0.40
2019-02-16T01:10:07.648Z,0.40
2019-02-16T01:12:33.836Z,0.40
2019-02-16T01:14:59.964Z,0.40
2019-02-16T01:17:26.142Z,0.30
2019-02-16T01:19:52.275Z,0.30
2019-02-16T01:22:18.449Z,0.30
2019-02-16T01:24:44.580Z,0.40
2019-02-16T01:27:10.685Z,0.60
2019-02-16T01:29:36.820Z,0.60
2019-02-16T01:32:03.050Z,0.60
2019-02-16T01:34:29.239Z,0.50
2019-02-16T01:36:55.398Z,0.40
2019-02-16T01:39:21.465Z,0.40
2019-02-16T01:41:48.013Z,0.20
2019-02-16T01:44:14.315Z,0.30
2019-02-16T01:46:40.511Z,0.20
2019-02-16T01:49:06.733Z,0.20
2019-02-16T01:51:32.988Z,0.30
2019-02-16T01:53:59.049Z,0.20
2019-02-16T01:56:25.212Z,0.30
2019-02-16T01:58:51.381Z,0.30
2019-02-16T02:01:17.485Z,0.20
2019-02-16T02:03:43.601Z,0.20
2019-02-16T02:06:09.704Z,0.20
2019-02-16T02:08:35.801Z,0.30
2019-02-16T02:11:02.006Z,0.20
2019-02-16T02:13:28.136Z,0.30
2019-02-16T02:15:54.335Z,0.20
2019-02-16T02:18:20.483Z,0.20
2019-02-16T02:20:46.571Z,0.10
2019-02-16T02:23:12.705Z,0.10
2019-02-16T02:25:38.861Z,0.10
2019-02-16T02:28:05.199Z,0.10
2019-02-16T02:30:31.389Z,0.10
2019-02-16T02:32:57.479Z,0.10
2019-02-16T02:35:23.566Z,0.00
2019-02-16T02:37:49.667Z,0.00
2019-02-16T02:40:15.761Z,-0.10
2019-02-16T02:42:41.853Z,-0.20
2019-02-16T02:45:09.390Z,-0.30
2019-02-16T02:47:35.550Z,-0.40
2019-02-16T02:50:01.851Z,-0.30
2019-02-16T02:52:27.938Z,-0.20
2019-02-16T02:54:54.076Z,-0.20
2019-02-16T02:57:20.219Z,-0.30
2019-02-16T02:59:46.363Z,-0.20
2019-02-16T03:02:12.447Z,-0.30
2019-02-16T03:04:38.514Z,-0.40
2019-02-16T03:07:04.618Z,-0.50
2019-02-16T03:09:30.763Z,-0.50
2019-02-16T03:11:57.023Z,-0.60
2019-02-16T03:14:23.102Z,-0.50
2019-02-16T03:16:49.195Z,-0.60
2019-02-16T03:19:15.372Z,-0.50
2019-02-16T03:21:41.494Z,-0.50
2019-02-16T03:24:07.664Z,-0.50
2019-02-16T03:26:52.689Z,-0.60
2019-02-16T03:29:22.702Z,-0.50
2019-02-16T03:31:58.459Z,-0.50
2019-02-16T03:34:31.148Z,-0.50
2019-02-16T03:37:34.844Z,-0.60
2019-02-16T03:40:01.061Z,-0.50
2019-02-16T03:42:27.303Z,-0.50
2019-02-16T03:44:53.524Z,-0.60
2019-02-16T03:47:19.659Z,-0.70
2019-02-16T03:49:45.870Z,-0.70
2019-02-16T03:52:14.220Z,-0.80
2019-02-16T03:54:40.028Z,-0.80
2019-02-16T03:57:06.174Z,-0.80
2019-02-16T03:59:32.247Z,-0.90
2019-02-16T04:01:58.382Z,-0.80
2019-02-16T04:04:24.513Z,-0.70
2019-02-16T04:06:50.672Z,-0.70
2019-02-16T04:09:16.804Z,-0.80
2019-02-16T04:11:42.863Z,-0.90
2019-02-16T04:14:08.966Z,-0.80
2019-02-16T04:16:35.117Z,-0.90
2019-02-16T04:19:01.307Z,-1.00
2019-02-16T04:21:27.526Z,-0.90
2019-02-16T04:23:53.734Z,-0.90
2019-02-16T04:26:19.839Z,-0.90
2019-02-16T04:28:45.932Z,-0.90
2019-02-16T04:31:12.010Z,-0.90
2019-02-16T04:33:38.114Z,-0.90
2019-02-16T04:36:04.244Z,-0.90
2019-02-16T04:38:30.366Z,-1.00
2019-02-16T04:40:56.476Z,-1.10
2019-02-16T04:43:22.591Z,-1.10
2019-02-16T04:45:48.782Z,-1.20
2019-02-16T04:48:14.864Z,-1.10
2019-02-16T04:50:41.012Z,-1.10
2019-02-16T04:53:07.094Z,-1.10
2019-02-16T04:55:33.228Z,-1.20
2019-02-16T04:57:59.454Z,-1.30
2019-02-16T05:00:25.528Z,-1.40
2019-02-16T05:02:51.702Z,-1.40
2019-02-16T05:05:17.862Z,-1.40
2019-02-16T05:07:43.960Z,-1.40
2019-02-16T05:10:10.181Z,-1.40
2019-02-16T05:12:36.270Z,-1.40
2019-02-16T05:15:03.406Z,-1.30
2019-02-16T05:17:29.634Z,-1.40
2019-02-16T05:19:55.805Z,-1.40
2019-02-16T05:22:21.899Z,-1.40
2019-02-16T05:24:48.173Z,-1.40
2019-02-16T05:27:14.400Z,-1.40
2019-02-16T05:29:40.719Z,-1.40
2019-02-16T05:32:06.971Z,-1.30
2019-02-16T05:34:33.126Z,-1.20
2019-02-16T05:36:59.246Z,-1.20
2019-02-16T05:39:25.350Z,-1.10
2019-02-16T05:41:51.554Z,-1.20
2019-02-16T05:44:17.785Z,-1.20
2019-02-16T05:46:43.882Z,-1.30
2019-02-16T05:49:10.034Z,-1.50
2019-02-16T05:51:36.240Z,-1.40
2019-02-16T05:54:02.477Z,-1.40
2019-02-16T05:56:28.633Z,-1.30
2019-02-16T05:58:54.769Z,-1.10
2019-02-16T06:01:20.890Z,-1.20
2019-02-16T06:03:47.105Z,-1.10
2019-02-16T06:06:13.292Z,-1.10
2019-02-16T06:08:39.371Z,-0.90
2019-02-16T06:11:06.105Z,-0.90
2019-02-16T06:13:32.419Z,-0.80
2019-02-16T06:15:58.549Z,-0.80
2019-02-16T06:18:24.626Z,-0.70
2019-02-16T06:20:50.707Z,-0.70
2019-02-16T06:23:16.806Z,-0.60
2019-02-16T06:25:43.330Z,-0.50
2019-02-16T06:28:09.562Z,-0.50
2019-02-16T06:30:35.883Z,-0.40
2019-02-16T06:33:02.010Z,-0.40
2019-02-16T06:35:32.876Z,-0.40
2019-02-16T06:37:59.003Z,-0.30
2019-02-16T06:40:25.123Z,-0.30
2019-02-16T06:42:51.358Z,-0.30
2019-02-16T06:45:17.529Z,-0.30
2019-02-16T06:47:43.669Z,-0.30
2019-02-16T06:50:09.901Z,-0.30
2019-02-16T06:52:36.134Z,-0.10
2019-02-16T06:55:02.509Z,-0.10
2019-02-16T06:57:29.642Z,-0.20
2019-02-16T06:59:55.713Z,-0.10
2019-02-16T07:02:22.926Z,0.00
2019-02-16T07:04:49.049Z,0.10
2019-02-16T07:07:15.245Z,0.20
2019-02-16T07:09:41.320Z,0.30
2019-02-16T07:12:07.415Z,0.30
2019-02-16T07:14:33.497Z,0.30
2019-02-16T07:17:01.498Z,0.40
2019-02-16T07:19:32.278Z,0.50
2019-02-16T07:21:58.406Z,0.50
2019-02-16T07:24:24.639Z,0.60
2019-02-16T07:26:50.990Z,0.70
2019-02-16T07:29:17.130Z,0.90
2019-02-16T07:31:43.211Z,1.10
2019-02-16T07:34:09.310Z,1.40
2019-02-16T07:36:35.430Z,1.60
2019-02-16T07:39:01.655Z,2.00
2019-02-16T07:41:27.849Z,2.10
2019-02-16T07:43:55.889Z,2.30
2019-02-16T07:46:24.182Z,2.30
2019-02-16T07:48:54.981Z,2.50
2019-02-16T07:51:25.969Z,2.60
2019-02-16T07:54:10.686Z,2.50
2019-02-16T07:56:38.725Z,2.50
2019-02-16T07:59:06.971Z,2.50
2019-02-16T08:01:47.035Z,2.70
2019-02-16T08:04:24.333Z,2.70
2019-02-16T08:07:10.398Z,2.80
2019-02-16T08:09:41.134Z,2.90
2019-02-16T08:12:26.227Z,3.10
2019-02-16T08:15:00.306Z,4.30
2019-02-16T08:17:46.918Z,5.50
2019-02-16T08:20:15.059Z,5.70
2019-02-16T08:22:52.188Z,5.60
2019-02-16T08:25:32.534Z,5.50
2019-02-16T08:28:17.564Z,5.20
2019-02-16T08:31:02.322Z,4.60
2019-02-16T08:33:36.432Z,4.30
2019-02-16T08:36:21.208Z,4.10
2019-02-16T08:38:55.125Z,4.00
2019-02-16T08:41:25.844Z,3.90
2019-02-16T08:43:53.868Z,4.00
2019-02-16T08:46:24.658Z,3.70
2019-02-16T08:49:09.509Z,3.50
2019-02-16T08:51:37.514Z,3.40
2019-02-16T08:54:22.516Z,3.50
2019-02-16T08:56:59.613Z,3.60
2019-02-16T08:59:30.396Z,3.70
2019-02-16T09:02:04.483Z,3.80
2019-02-16T09:04:35.278Z,3.90
2019-02-16T09:07:06.482Z,4.00
2019-02-16T09:09:34.495Z,4.10
2019-02-16T09:12:14.850Z,4.30
2019-02-16T09:14:55.030Z,4.20
2019-02-16T09:17:31.730Z,4.40
2019-02-16T09:20:16.714Z,4.70
2019-02-16T09:22:44.706Z,5.00
2019-02-16T09:25:28.088Z,5.20
2019-02-16T09:28:02.067Z,4.90
2019-02-16T09:30:45.508Z,5.10
2019-02-16T09:33:16.183Z,5.40
2019-02-16T09:35:47.478Z,5.70
2019-02-16T09:38:21.498Z,6.10
2019-02-16T09:40:58.631Z,6.10
2019-02-16T09:43:32.810Z,6.60
2019-02-16T09:46:00.865Z,6.90
2019-02-16T09:48:28.978Z,7.30
2019-02-16T09:51:02.930Z,7.90
2019-02-16T09:53:33.801Z,8.20
2019-02-16T09:56:18.627Z,8.00
2019-02-16T09:59:01.691Z,8.60
2019-02-16T10:01:35.645Z,8.70
2019-02-16T10:04:06.671Z,9.00
2019-02-16T10:06:51.591Z,9.30
2019-02-16T10:09:25.655Z,9.20
2019-02-16T10:12:10.611Z,9.30
2019-02-16T10:14:55.242Z,8.70
2019-02-16T10:17:23.322Z,9.10
2019-02-16T10:19:51.401Z,8.90
2019-02-16T10:22:19.520Z,9.20
2019-02-16T10:24:47.575Z,9.30
2019-02-16T10:27:15.881Z,9.50
2019-02-16T10:29:46.625Z,10.00
2019-02-16T10:32:29.819Z,10.20
2019-02-16T10:35:14.528Z,10.50
2019-02-16T10:37:42.585Z,10.70
2019-02-16T10:40:10.813Z,10.70
2019-02-16T10:42:55.947Z,11.40
2019-02-16T10:45:42.068Z,11.80
2019-02-16T10:48:12.849Z,12.00
2019-02-16T10:50:46.795Z,11.50
2019-02-16T10:53:14.854Z,11.70
2019-02-16T10:55:54.835Z,11.80
2019-02-16T10:58:32.013Z,12.30
2019-02-16T11:01:08.815Z,12.70
2019-02-16T11:03:36.913Z,12.70
2019-02-16T11:06:07.913Z,12.80
2019-02-16T11:08:38.791Z,12.40
2019-02-16T11:11:06.928Z,12.70
2019-02-16T11:13:38.260Z,12.90
2019-02-16T11:16:10.153Z,13.00
2019-02-16T11:18:53.567Z,13.40
2019-02-16T11:21:24.502Z,13.30
2019-02-16T11:24:01.681Z,13.40
2019-02-16T11:26:47.811Z,13.40
2019-02-16T11:29:15.849Z,13.70
2019-02-16T11:31:55.972Z,14.40
2019-02-16T11:34:26.819Z,14.20
2019-02-16T11:36:54.858Z,14.40
2019-02-16T11:39:25.962Z,14.10
2019-02-16T11:41:56.718Z,14.50
2019-02-16T11:44:41.729Z,14.50
2019-02-16T11:47:12.616Z,14.30
2019-02-16T11:49:40.627Z,14.20
2019-02-16T11:52:08.687Z,13.80
2019-02-16T11:54:45.591Z,14.20
2019-02-16T11:57:12.742Z,14.20
2019-02-16T11:59:40.799Z,14.30
2019-02-16T12:02:21.028Z,14.30
2019-02-16T12:04:51.809Z,14.80
2019-02-16T12:07:22.595Z,14.90
2019-02-16T12:10:07.219Z,15.10
2019-02-16T12:12:35.255Z,15.50
2019-02-16T12:15:06.122Z,15.70
2019-02-16T12:17:51.081Z,15.60
2019-02-16T12:20:33.700Z,14.90
2019-02-16T12:22:58.163Z,15.20
2019-02-16T12:25:35.197Z,15.70
2019-02-16T12:28:06.347Z,15.60
2019-02-16T12:30:51.121Z,16.00
2019-02-16T12:33:19.275Z,16.20
2019-02-16T12:36:04.195Z,16.70
2019-02-16T12:38:44.281Z,16.60
2019-02-16T12:41:18.327Z,16.30
2019-02-16T12:43:55.058Z,16.80
2019-02-16T12:46:23.109Z,16.70
2019-02-16T12:49:07.775Z,17.10
2019-02-16T12:51:35.823Z,17.10
2019-02-16T12:54:06.881Z,17.50
2019-02-16T12:56:43.715Z,17.40
2019-02-16T12:59:11.749Z,17.60
2019-02-16T13:01:42.881Z,17.50
2019-02-16T13:04:27.517Z,17.90
2019-02-16T13:07:01.584Z,17.60
2019-02-16T13:09:42.004Z,17.40
2019-02-16T13:12:16.009Z,17.70
2019-02-16T13:14:44.119Z,17.00
2019-02-16T13:17:18.018Z,16.60
2019-02-16T13:19:51.855Z,16.50
2019-02-16T13:22:22.783Z,16.90
2019-02-16T13:25:07.703Z,17.20
2019-02-16T13:27:38.599Z,17.50
2019-02-16T13:30:20.356Z,17.50
2019-02-16T13:32:48.407Z,17.70
2019-02-16T13:35:25.679Z,17.60
2019-02-16T13:37:59.708Z,17.20
2019-02-16T13:40:30.714Z,17.20
2019-02-16T13:43:17.040Z,17.20
2019-02-16T13:46:02.102Z,16.80
2019-02-16T13:48:30.204Z,16.80
2019-02-16T13:51:07.102Z,17.00
2019-02-16T13:53:35.234Z,17.20
2019-02-16T13:56:18.104Z,17.30
2019-02-16T13:58:51.947Z,16.90
2019-02-16T14:01:25.963Z,16.50
2019-02-16T14:03:59.442Z,16.40
2019-02-16T14:06:30.210Z,16.50
2019-02-16T14:08:58.226Z,16.90
2019-02-16T14:11:44.631Z,16.90
2019-02-16T14:14:15.708Z,17.50
2019-02-16T14:16:43.828Z,18.30
2019-02-16T14:19:10.002Z,19.20
2019-02-16T14:21:36.200Z,20.50
2019-02-16T14:24:02.362Z,21.00
2019-02-16T14:26:28.460Z,20.40
2019-02-16T14:28:54.645Z,20.90
2019-02-16T14:31:28.245Z,21.60
2019-02-16T14:33:48.859Z,22.00
2019-02-16T14:36:15.100Z,21.60
2019-02-16T14:38:46.110Z,22.00
2019-02-16T14:41:12.273Z,23.30
2019-02-16T14:43:38.351Z,22.60
2019-02-16T14:46:04.573Z,22.10
2019-02-16T14:48:30.705Z,22.60
2019-02-16T14:50:56.848Z,22.70
2019-02-16T14:53:23.234Z,22.10
2019-02-16T14:55:53.732Z,22.20
2019-02-16T14:58:17.462Z,22.60
2019-02-16T15:00:43.546Z,23.10
2019-02-16T15:03:09.785Z,22.80
2019-02-16T15:05:35.910Z,22.60
2019-02-16T15:08:02.165Z,22.90
2019-02-16T15:10:28.338Z,22.90
2019-02-16T15:12:54.509Z,23.00
2019-02-16T15:15:20.678Z,23.50
2019-02-16T15:17:46.829Z,22.80
2019-02-16T15:20:14.661Z,22.20
2019-02-16T15:22:40.977Z,22.20
2019-02-16T15:25:10.666Z,22.00
2019-02-16T15:27:37.164Z,21.80
2019-02-16T15:30:09.401Z,21.80
2019-02-16T15:32:35.565Z,21.90
2019-02-16T15:35:01.897Z,21.70
2019-02-16T15:37:28.144Z,21.20
2019-02-16T15:39:54.397Z,20.50
2019-02-16T15:42:20.597Z,20.10
2019-02-16T15:44:47.166Z,18.90
2019-02-16T15:47:13.507Z,17.70
2019-02-16T15:49:41.156Z,16.60
2019-02-16T15:52:07.445Z,16.00
2019-02-16T15:54:33.587Z,15.50
2019-02-16T15:56:59.766Z,15.20
2019-02-16T15:59:34.827Z,15.10
2019-02-16T16:01:53.941Z,15.20
2019-02-16T16:04:21.574Z,14.90
2019-02-16T16:06:47.975Z,14.50
2019-02-16T16:09:21.815Z,14.20
2019-02-16T16:11:49.844Z,13.90
2019-02-16T16:14:20.809Z,13.70
2019-02-16T16:16:51.862Z,13.40
2019-02-16T16:19:35.005Z,12.90
2019-02-16T16:22:03.155Z,12.70
2019-02-16T16:24:37.288Z,12.60
2019-02-16T16:27:17.389Z,12.50
2019-02-16T16:29:51.418Z,12.30
2019-02-16T16:32:22.308Z,12.10
2019-02-16T16:35:07.071Z,11.90
2019-02-16T16:37:41.647Z,11.40
2019-02-16T16:40:12.741Z,11.30
2019-02-16T16:42:48.569Z,11.10
2019-02-16T16:45:16.723Z,10.80
2019-02-16T16:47:47.527Z,10.60
2019-02-16T16:50:18.755Z,10.50
2019-02-16T16:52:57.857Z,10.30
2019-02-16T16:55:37.837Z,10.10
2019-02-16T16:58:17.912Z,10.00
2019-02-16T17:00:54.918Z,9.90
2019-02-16T17:03:22.964Z,9.70
2019-02-16T17:05:57.032Z,9.60
2019-02-16T17:08:25.147Z,9.50
2019-02-16T17:10:53.331Z,9.40
2019-02-16T17:13:21.418Z,9.20
2019-02-16T17:15:58.219Z,9.20
2019-02-16T17:18:32.310Z,9.10
2019-02-16T17:21:06.288Z,9.00
2019-02-16T17:23:34.326Z,8.90
2019-02-16T17:26:05.533Z,8.70
2019-02-16T17:28:33.622Z,8.50
2019-02-16T17:31:10.530Z,8.40
2019-02-16T17:33:47.400Z,8.30
2019-02-16T17:36:15.435Z,8.30
2019-02-16T17:38:49.752Z,8.30
2019-02-16T17:41:20.532Z,8.10
2019-02-16T17:43:51.360Z,8.00
2019-02-16T17:46:28.501Z,7.90
2019-02-16T17:49:11.656Z,7.80
2019-02-16T17:51:45.726Z,7.70
2019-02-16T17:54:19.578Z,7.70
2019-02-16T17:56:53.354Z,7.60
2019-02-16T17:59:24.360Z,7.50
2019-02-16T18:02:01.656Z,7.40
2019-02-16T18:04:42.040Z,7.40
2019-02-16T18:07:16.178Z,7.40
2019-02-16T18:09:47.194Z,7.40
2019-02-16T18:12:21.318Z,7.40
2019-02-16T18:14:51.134Z,7.40
2019-02-16T18:17:28.578Z,7.40
2019-02-16T18:19:59.577Z,7.30
2019-02-16T18:22:30.489Z,7.10
2019-02-16T18:25:07.473Z,7.00
2019-02-16T18:27:50.825Z,6.90
2019-02-16T18:30:18.929Z,6.90
2019-02-16T18:33:05.310Z,6.90
2019-02-16T18:35:50.473Z,6.80
2019-02-16T18:38:24.379Z,6.70
2019-02-16T18:40:52.384Z,6.50
2019-02-16T18:43:32.575Z,6.30
2019-02-16T18:46:17.474Z,6.30
2019-02-16T18:48:54.441Z,6.20
2019-02-16T18:51:49.263Z,6.10
2019-02-16T18:54:17.322Z,6.10
2019-02-16T18:56:48.407Z,6.10
2019-02-16T18:59:19.255Z,5.90
2019-02-16T19:01:50.356Z,5.90
2019-02-16T19:04:18.349Z,5.80
2019-02-16T19:06:55.624Z,5.80
2019-02-16T19:09:29.450Z,5.80
2019-02-16T19:12:09.831Z,5.80
2019-02-16T19:14:37.826Z,5.80
2019-02-16T19:17:18.082Z,5.80
2019-02-16T19:19:55.262Z,5.70
2019-02-16T19:22:23.268Z,5.80
2019-02-16T19:25:00.388Z,5.80
2019-02-16T19:27:28.451Z,5.80
2019-02-16T19:29:56.624Z,6.00
2019-02-16T19:32:24.749Z,5.90
2019-02-16T19:34:52.905Z,5.80
2019-02-16T19:37:23.863Z,5.90
2019-02-16T19:39:55.049Z,5.90
2019-02-16T19:42:29.096Z,6.00
2019-02-16T19:45:13.886Z,6.10
2019-02-16T19:47:42.122Z,6.20
2019-02-16T19:50:15.931Z,6.30
2019-02-16T19:52:56.063Z,6.40
2019-02-16T19:55:40.694Z,6.40
2019-02-16T19:58:17.618Z,6.30
2019-02-16T20:01:02.318Z,6.40
2019-02-16T20:03:33.154Z,6.30
2019-02-16T20:06:07.242Z,6.30
2019-02-16T20:08:35.375Z,6.20
2019-02-16T20:11:20.292Z,6.30
2019-02-16T20:13:54.152Z,6.30
2019-02-16T20:16:38.853Z,6.30
2019-02-16T20:19:06.951Z,6.40
2019-02-16T20:21:46.809Z,6.40
2019-02-16T20:24:14.850Z,6.50
2019-02-16T20:26:42.966Z,6.40
2019-02-16T20:29:26.151Z,6.50
2019-02-16T20:31:54.296Z,6.40
2019-02-16T20:34:37.697Z,6.40
2019-02-16T20:37:05.910Z,6.40
2019-02-16T20:39:37.028Z,6.50
2019-02-16T20:42:07.959Z,6.50
2019-02-16T20:44:39.124Z,6.50
2019-02-16T20:47:10.096Z,6.50
2019-02-16T20:49:55.247Z,6.50
2019-02-16T20:52:29.226Z,6.50
2019-02-16T20:54:57.373Z,6.40
2019-02-16T20:57:47.053Z,6.50
2019-02-16T21:00:12.352Z,6.50
2019-02-16T21:02:52.699Z,6.40
2019-02-16T21:05:20.667Z,6.30
2019-02-16T21:08:03.843Z,6.10
2019-02-16T21:10:31.867Z,6.00
2019-02-16T21:12:59.906Z,5.90
2019-02-16T21:15:31.016Z,5.80
2019-02-16T21:17:59.165Z,5.70
2019-02-16T21:20:27.242Z,5.70
2019-02-16T21:23:13.369Z,5.50
2019-02-16T21:25:41.400Z,5.40
2019-02-16T21:28:26.587Z,5.20
2019-02-16T21:30:55.109Z,5.20
2019-02-16T21:33:41.836Z,5.10
2019-02-16T21:36:12.469Z,5.00
2019-02-16T21:39:03.202Z,4.90
2019-02-16T21:41:28.664Z,4.80
2019-02-16T21:43:56.674Z,4.70
2019-02-16T21:46:30.741Z,4.70
2019-02-16T21:49:01.844Z,4.70
2019-02-16T21:51:48.060Z,4.70
2019-02-16T21:54:21.653Z,4.70
2019-02-16T21:56:55.458Z,4.60
2019-02-16T21:59:26.573Z,4.40
2019-02-16T22:02:03.706Z,4.40
2019-02-16T22:04:37.589Z,4.40
2019-02-16T22:07:08.688Z,4.40
2019-02-16T22:09:36.785Z,4.40
2019-02-16T22:12:23.063Z,4.40
2019-02-16T22:14:49.288Z,4.40
2019-02-16T22:17:15.374Z,4.50
2019-02-16T22:19:41.482Z,4.50
2019-02-16T22:22:07.562Z,4.50
2019-02-16T22:24:33.724Z,4.50
2019-02-16T22:26:59.958Z,4.40
2019-02-16T22:29:26.201Z,4.40
2019-02-16T22:31:52.393Z,4.30
2019-02-16T22:34:18.505Z,4.20
2019-02-16T22:36:44.601Z,4.20
2019-02-16T22:39:10.690Z,4.20
2019-02-16T22:41:36.831Z,4.20
2019-02-16T22:44:03.239Z,4.10
2019-02-16T22:46:29.371Z,4.20
2019-02-16T22:48:55.520Z,4.10
2019-02-16T22:51:21.672Z,4.10
2019-02-16T22:53:47.889Z,4.10
2019-02-16T22:56:14.117Z,4.00
2019-02-16T22:58:40.223Z,4.00
2019-02-16T23:01:06.810Z,3.90
2019-02-16T23:03:32.936Z,3.80
2019-02-16T23:05:59.109Z,3.80
2019-02-16T23:08:25.253Z,3.90
2019-02-16T23:10:51.437Z,3.80
2019-02-16T23:13:17.639Z,3.60
2019-02-16T23:15:43.871Z,3.40
2019-02-16T23:18:10.269Z,3.20
2019-02-16T23:20:36.497Z,2.90
2019-02-16T23:23:03.153Z,2.70
2019-02-16T23:25:29.335Z,2.70
2019-02-16T23:27:55.565Z,2.70
2019-02-16T23:30:21.746Z,2.60
2019-02-16T23:32:47.882Z,2.70
2019-02-16T23:35:14.006Z,2.70
2019-02-16T23:37:40.125Z,2.90
2019-02-16T23:40:07.027Z,3.10
2019-02-16T23:42:33.119Z,3.00
2019-02-16T23:44:59.236Z,3.00
2019-02-16T23:47:25.316Z,3.00
2019-02-16T23:49:51.472Z,2.90
2019-02-16T23:52:18.056Z,2.90
2019-02-16T23:54:44.156Z,2.90
2019-02-16T23:57:10.249Z,2.90
2019-02-16T23:59:36.360Z,2.90
